Time;durP1;ratioP1;P1;durP2;ratioP2;P2;SDS_P1;SDS_P2;PMS_P1;PMS_P2;Temp;Humidity;BMP_temperature;BMP_pressure;BME280_temperature;BME280_humidity;BME280_pressure;Samples;Min_cycle;Max_cycle;Signal;HPM_P1;HPM_P2
2023/06/22 00:00:28;;;;;;;19.40;16.50;;;18.80;99.90;;;;;;5051191;28;20049;-68
2023/06/22 00:02:54;;;;;;;19.80;16.50;;;18.70;99.90;;;;;;5035228;28;20045;-69
2023/06/22 00:05:20;;;;;;;18.85;16.75;;;18.70;99.90;;;;;;5035112;28;20052;-69
2023/06/22 00:07:45;;;;;;;22.63;18.15;;;18.60;99.90;;;;;;5051274;28;20049;-71
2023/06/22 00:10:11;;;;;;;22.48;16.85;;;18.60;99.90;;;;;;5052382;28;20059;-69
2023/06/22 00:12:37;;;;;;;19.42;15.57;;;18.60;99.90;;;;;;5053139;28;20041;-70
2023/06/22 00:15:03;;;;;;;23.67;20.95;;;18.60;99.90;;;;;;5052673;28;20037;-69
2023/06/22 00:17:29;;;;;;;20.73;17.08;;;18.60;99.90;;;;;;5051833;28;20048;-70
2023/06/22 00:19:55;;;;;;;19.88;16.60;;;18.50;99.90;;;;;;5052314;28;20095;-69
2023/06/22 00:22:28;;;;;;;22.42;18.00;;;18.50;99.90;;;;;;5052553;28;20049;-69
2023/06/22 00:24:55;;;;;;;24.98;21.05;;;18.40;99.90;;;;;;5052156;28;20094;-69
2023/06/22 00:27:21;;;;;;;19.67;16.50;;;18.40;99.90;;;;;;5051444;28;20088;-69
2023/06/22 00:29:47;;;;;;;22.00;19.40;;;18.30;99.90;;;;;;5052155;28;20126;-70
2023/06/22 00:32:12;;;;;;;27.73;23.45;;;18.30;99.90;;;;;;5052285;28;20462;-68
2023/06/22 00:34:38;;;;;;;22.10;18.73;;;18.20;99.90;;;;;;5052225;28;20064;-68
2023/06/22 00:37:04;;;;;;;24.73;20.30;;;18.10;99.90;;;;;;5052873;28;20045;-69
2023/06/22 00:39:32;;;;;;;24.88;19.17;;;18.10;99.90;;;;;;5052130;28;20389;-69
2023/06/22 00:41:59;;;;;;;21.00;17.63;;;18.10;99.90;;;;;;5052017;28;20063;-70
2023/06/22 00:44:25;;;;;;;21.10;17.67;;;18.10;99.90;;;;;;5052311;28;20041;-69
2023/06/22 00:46:54;;;;;;;26.08;19.40;;;18.10;99.90;;;;;;5052477;28;20045;-68
2023/06/22 00:49:20;;;;;;;21.80;18.65;;;18.20;99.90;;;;;;5052478;28;20081;-69
2023/06/22 00:51:47;;;;;;;21.00;17.98;;;18.10;99.90;;;;;;5052077;28;20381;-68
2023/06/22 00:54:13;;;;;;;21.83;17.92;;;18.10;99.90;;;;;;5052344;28;20119;-69
2023/06/22 00:56:40;;;;;;;27.50;22.27;;;18.00;99.90;;;;;;5051318;28;20056;-69
2023/06/22 00:59:06;;;;;;;22.70;16.90;;;18.00;99.90;;;;;;5052885;28;20118;-69
2023/06/22 01:01:34;;;;;;;24.48;18.33;;;17.90;99.90;;;;;;5051147;28;20457;-69
2023/06/22 01:04:00;;;;;;;26.30;23.50;;;17.90;99.90;;;;;;5052432;28;20053;-69
2023/06/22 01:06:38;;;;;;;22.65;16.55;;;17.80;99.90;;;;;;5052736;28;20171;-69
2023/06/22 01:09:19;;;;;;;20.50;17.42;;;17.80;99.90;;;;;;5052085;28;20120;-69
2023/06/22 01:11:50;;;;;;;25.15;20.08;;;17.80;99.90;;;;;;5052709;28;20080;-70
2023/06/22 01:14:24;;;;;;;19.27;17.27;;;17.80;99.90;;;;;;5052818;28;20097;-69
2023/06/22 01:16:54;;;;;;;22.15;16.98;;;17.80;99.90;;;;;;5052583;28;20045;-70
2023/06/22 01:19:46;;;;;;;28.95;23.92;;;17.80;99.90;;;;;;5052567;28;20503;-70
2023/06/22 01:22:16;;;;;;;28.52;23.70;;;17.80;99.90;;;;;;5056288;28;20048;-69
2023/06/22 01:24:51;;;;;;;26.83;22.45;;;17.80;99.90;;;;;;5056620;28;20439;-69
2023/06/22 01:27:36;;;;;;;26.95;21.67;;;18.10;99.90;;;;;;5056125;28;20048;-69
2023/06/22 01:30:05;;;;;;;25.17;20.33;;;17.70;99.90;;;;;;5055260;28;20087;-69
2023/06/22 01:32:34;;;;;;;33.70;24.30;;;17.60;99.90;;;;;;5054809;28;20532;-70
2023/06/22 01:35:01;;;;;;;28.00;22.75;;;17.60;99.90;;;;;;5054810;28;20449;-71
2023/06/22 01:37:32;;;;;;;25.77;21.15;;;17.60;99.90;;;;;;5054860;28;20040;-69
2023/06/22 01:39:59;;;;;;;25.75;21.73;;;17.60;99.90;;;;;;5054944;28;20116;-69
2023/06/22 01:42:25;;;;;;;28.73;24.35;;;17.60;99.90;;;;;;5055841;28;20044;-70
2023/06/22 01:44:52;;;;;;;43.15;34.63;;;17.60;99.90;;;;;;5055980;28;20044;-70
2023/06/22 01:47:20;;;;;;;41.22;33.33;;;17.70;99.90;;;;;;5056012;28;20049;-70
2023/06/22 01:49:46;;;;;;;36.28;29.33;;;17.60;99.90;;;;;;5055555;28;20052;-70
2023/06/22 01:52:12;;;;;;;27.85;22.45;;;17.60;99.90;;;;;;5055151;28;20053;-71
2023/06/22 01:54:39;;;;;;;34.10;28.42;;;17.60;99.90;;;;;;5055706;28;20037;-69
2023/06/22 01:57:05;;;;;;;34.20;28.05;;;17.60;99.90;;;;;;5055587;28;20104;-71
2023/06/22 02:00:02;;;;;;;34.17;28.15;;;17.60;99.90;;;;;;5055464;28;20052;-70
2023/06/22 02:02:36;;;;;;;32.33;25.55;;;17.60;99.90;;;;;;5055419;28;20045;-69
2023/06/22 02:05:07;;;;;;;29.08;24.23;;;17.50;99.90;;;;;;5055328;28;20053;-69
2023/06/22 02:07:42;;;;;;;32.35;28.98;;;17.50;99.90;;;;;;5055445;28;20049;-69
2023/06/22 02:10:12;;;;;;;31.77;23.23;;;17.50;99.90;;;;;;5055038;28;20041;-69
2023/06/22 02:12:38;;;;;;;30.30;23.20;;;17.50;99.90;;;;;;5054994;28;20102;-69
2023/06/22 02:15:05;;;;;;;36.33;28.83;;;17.40;99.90;;;;;;5054939;28;20085;-70
2023/06/22 02:17:32;;;;;;;29.73;22.73;;;17.40;99.90;;;;;;5055259;28;20045;-72
2023/06/22 02:19:58;;;;;;;30.15;23.85;;;17.40;99.90;;;;;;5037025;28;20049;-69
2023/06/22 02:22:24;;;;;;;28.60;23.27;;;17.40;99.90;;;;;;5054554;28;20353;-70
2023/06/22 02:24:50;;;;;;;28.70;22.35;;;17.30;99.90;;;;;;5054702;28;20049;-71
2023/06/22 02:27:16;;;;;;;30.05;26.55;;;17.30;99.90;;;;;;5054503;28;20476;-70
2023/06/22 02:29:41;;;;;;;25.33;20.88;;;17.30;99.90;;;;;;5054697;28;20053;-71
2023/06/22 02:32:07;;;;;;;22.73;19.08;;;17.30;99.90;;;;;;5053278;28;20045;-71
2023/06/22 02:34:33;;;;;;;29.83;23.00;;;17.30;99.90;;;;;;5054364;28;20045;-69
2023/06/22 02:37:02;;;;;;;25.25;20.08;;;17.30;99.90;;;;;;5053045;28;20052;-70
2023/06/22 02:39:27;;;;;;;21.73;18.60;;;17.30;99.90;;;;;;5053141;28;20047;-69
2023/06/22 02:41:54;;;;;;;20.55;17.85;;;17.30;99.90;;;;;;5054312;28;20124;-69
2023/06/22 02:44:20;;;;;;;20.15;18.02;;;17.20;99.90;;;;;;5054360;28;20099;-70
2023/06/22 02:46:47;;;;;;;20.50;17.75;;;17.10;99.90;;;;;;5053053;28;20053;-68
2023/06/22 02:49:13;;;;;;;17.15;15.35;;;17.10;99.90;;;;;;5053912;28;20481;-71
2023/06/22 02:51:45;;;;;;;14.38;12.93;;;17.00;99.90;;;;;;5054068;28;20044;-69
2023/06/22 02:54:10;;;;;;;25.15;19.45;;;16.90;99.90;;;;;;5053885;28;20040;-70
2023/06/22 02:56:36;;;;;;;23.13;20.55;;;16.90;99.90;;;;;;5052814;28;20049;-70
2023/06/22 02:59:02;;;;;;;20.25;17.65;;;16.80;99.90;;;;;;5053853;28;20037;-70
2023/06/22 03:01:30;;;;;;;22.55;19.70;;;16.90;99.90;;;;;;5053497;28;20106;-70
2023/06/22 03:03:58;;;;;;;22.58;18.23;;;16.80;99.90;;;;;;5053792;28;20045;-71
2023/06/22 03:06:28;;;;;;;20.20;17.83;;;16.90;99.90;;;;;;5054095;28;20049;-69
2023/06/22 03:08:58;;;;;;;33.38;27.45;;;16.90;99.90;;;;;;5053596;28;20044;-70
2023/06/22 03:11:24;;;;;;;28.33;22.85;;;16.90;99.90;;;;;;5054067;28;20478;-69
2023/06/22 03:13:52;;;;;;;33.25;27.05;;;17.00;99.90;;;;;;5053772;28;20071;-69
2023/06/22 03:16:17;;;;;;;57.97;33.10;;;17.00;99.90;;;;;;5036536;28;20079;-70
2023/06/22 03:18:43;;;;;;;33.75;27.40;;;17.00;99.90;;;;;;5053598;28;20049;-70
2023/06/22 03:21:09;;;;;;;45.85;32.38;;;17.00;99.90;;;;;;5053625;28;20045;-70
2023/06/22 03:23:35;;;;;;;29.77;26.42;;;17.00;99.90;;;;;;5052526;28;20426;-70
2023/06/22 03:26:01;;;;;;;40.22;31.27;;;17.10;99.90;;;;;;5053294;28;20057;-71
2023/06/22 03:28:27;;;;;;;37.60;29.80;;;17.10;99.90;;;;;;5052095;28;20049;-71
2023/06/22 03:30:53;;;;;;;48.08;32.75;;;17.20;99.90;;;;;;5053373;28;20055;-69
2023/06/22 03:33:18;;;;;;;37.85;31.58;;;17.20;99.90;;;;;;5052052;28;20076;-70
2023/06/22 03:35:44;;;;;;;29.67;22.63;;;17.20;99.90;;;;;;5052836;28;20102;-69
2023/06/22 03:38:10;;;;;;;45.38;29.00;;;17.20;99.90;;;;;;5053228;28;20084;-71
2023/06/22 03:40:35;;;;;;;38.25;28.20;;;17.30;99.90;;;;;;5051838;28;20045;-70
2023/06/22 03:43:01;;;;;;;77.10;34.45;;;17.20;99.90;;;;;;5051320;28;20053;-70
2023/06/22 03:45:26;;;;;;;42.15;33.97;;;17.20;99.90;;;;;;5053450;28;20060;-70
2023/06/22 03:47:53;;;;;;;32.80;27.73;;;17.20;99.90;;;;;;5052980;28;20485;-70
2023/06/22 03:50:20;;;;;;;39.42;34.50;;;17.10;99.90;;;;;;5035196;28;20407;-72
2023/06/22 03:52:46;;;;;;;33.38;29.75;;;17.10;99.90;;;;;;5052642;28;20049;-71
2023/06/22 03:55:12;;;;;;;32.33;27.95;;;17.20;99.90;;;;;;5053618;28;20082;-70
2023/06/22 03:57:38;;;;;;;36.75;30.50;;;17.20;99.90;;;;;;5052960;28;20045;-70
2023/06/22 04:00:05;;;;;;;29.33;24.90;;;17.20;99.90;;;;;;5052693;28;20051;-71
2023/06/22 04:02:31;;;;;;;27.65;22.40;;;17.20;99.90;;;;;;5052635;28;20075;-70
2023/06/22 04:04:57;;;;;;;35.67;28.80;;;17.20;99.90;;;;;;5052925;28;20045;-69
2023/06/22 04:07:23;;;;;;;37.42;29.92;;;17.20;99.90;;;;;;5052443;28;20045;-70
2023/06/22 04:09:48;;;;;;;40.08;31.75;;;17.30;99.90;;;;;;5052469;28;20041;-70
2023/06/22 04:12:14;;;;;;;30.40;25.52;;;17.30;99.90;;;;;;5051228;28;20075;-71
2023/06/22 04:14:40;;;;;;;34.83;27.60;;;17.30;99.90;;;;;;5052311;28;20124;-70
2023/06/22 04:17:06;;;;;;;35.17;28.25;;;17.40;99.90;;;;;;5052685;28;20041;-70
2023/06/22 04:19:31;;;;;;;24.70;22.08;;;17.50;99.90;;;;;;5052551;28;20500;-71
2023/06/22 04:21:57;;;;;;;31.27;26.80;;;17.50;99.90;;;;;;5052448;28;20488;-70
2023/06/22 04:24:23;;;;;;;31.90;26.73;;;17.50;99.90;;;;;;5052162;28;20150;-69
2023/06/22 04:26:48;;;;;;;32.78;27.55;;;17.60;99.90;;;;;;5052694;28;20059;-70
2023/06/22 04:29:14;;;;;;;36.80;28.60;;;17.60;99.90;;;;;;5052709;28;20522;-69
2023/06/22 04:31:40;;;;;;;35.70;28.05;;;17.60;99.90;;;;;;5052235;28;20124;-71
2023/06/22 04:34:07;;;;;;;30.85;25.10;;;17.60;99.90;;;;;;5052288;28;20049;-70
2023/06/22 04:36:38;;;;;;;35.60;28.00;;;17.60;99.90;;;;;;5052229;28;20084;-69
2023/06/22 04:39:12;;;;;;;33.63;28.70;;;17.60;99.90;;;;;;5052123;28;20045;-70
2023/06/22 04:41:42;;;;;;;34.00;28.05;;;17.60;99.90;;;;;;5052299;28;20045;-69
2023/06/22 04:44:09;;;;;;;33.45;27.98;;;18.10;99.90;;;;;;5052420;28;20049;-69
2023/06/22 04:46:37;;;;;;;32.47;28.65;;;17.70;99.90;;;;;;5052088;28;20048;-70
2023/06/22 04:49:10;;;;;;;40.67;29.73;;;17.70;99.90;;;;;;5067824;28;20041;-70
2023/06/22 04:51:37;;;;;;;;;;;17.70;99.90;;;;;;5052440;28;20077;-70
2023/06/22 04:54:05;;;;;;;37.53;30.33;;;17.70;99.90;;;;;;5050376;28;19928;-69
2023/06/22 04:56:32;;;;;;;34.53;30.40;;;17.80;99.90;;;;;;5052381;28;20368;-70
2023/06/22 04:58:57;;;;;;;35.15;27.80;;;17.80;99.90;;;;;;5050833;28;20068;-69
2023/06/22 05:01:23;;;;;;;29.50;26.13;;;17.90;99.90;;;;;;5051387;28;20495;-69
2023/06/22 05:03:49;;;;;;;36.97;30.25;;;17.90;99.90;;;;;;5051034;28;20124;-70
2023/06/22 05:06:15;;;;;;;35.60;28.83;;;18.00;99.90;;;;;;5051839;28;20099;-70
2023/06/22 05:08:41;;;;;;;39.22;29.70;;;18.10;99.90;;;;;;5051717;28;20045;-70
2023/06/22 05:11:06;;;;;;;38.50;29.98;;;18.10;99.90;;;;;;5034358;28;20103;-71
2023/06/22 05:13:32;;;;;;;43.13;33.28;;;18.20;99.90;;;;;;5051450;28;20078;-69
2023/06/22 05:16:01;;;;;;;41.85;32.05;;;18.20;99.90;;;;;;5051724;28;20045;-69
2023/06/22 05:18:31;;;;;;;38.97;28.33;;;18.30;99.90;;;;;;5050774;28;20056;-69
2023/06/22 05:20:58;;;;;;;40.65;31.35;;;18.40;99.90;;;;;;5052123;28;20052;-71
2023/06/22 05:23:23;;;;;;;38.17;28.30;;;18.50;99.90;;;;;;5051395;28;20059;-69
2023/06/22 05:25:49;;;;;;;40.33;31.50;;;18.50;99.90;;;;;;5050759;28;20049;-69
2023/06/22 05:28:15;;;;;;;36.63;29.02;;;18.60;99.90;;;;;;5052047;28;20057;-69
2023/06/22 05:30:41;;;;;;;43.08;33.20;;;18.70;99.90;;;;;;5050671;28;20465;-69
2023/06/22 05:33:06;;;;;;;42.80;33.67;;;18.80;99.90;;;;;;5051591;28;20049;-71
2023/06/22 05:35:32;;;;;;;47.60;33.15;;;18.90;99.90;;;;;;5051598;28;20053;-69
2023/06/22 05:37:58;;;;;;;41.25;30.88;;;19.00;99.90;;;;;;5051409;28;20043;-69
2023/06/22 05:40:23;;;;;;;41.40;30.10;;;19.10;99.90;;;;;;5050520;28;20183;-70
2023/06/22 05:42:49;;;;;;;37.67;29.65;;;19.30;99.90;;;;;;5051304;28;20048;-69
2023/06/22 05:45:15;;;;;;;39.42;31.15;;;19.50;99.90;;;;;;5050281;28;20045;-69
2023/06/22 05:47:40;;;;;;;32.85;26.30;;;19.60;99.90;;;;;;5050157;28;20045;-71
2023/06/22 05:50:08;;;;;;;38.40;29.27;;;19.70;99.90;;;;;;5050587;28;20045;-70
2023/06/22 05:52:34;;;;;;;30.88;26.00;;;19.80;99.90;;;;;;5051512;28;20052;-71
2023/06/22 05:55:01;;;;;;;34.58;26.95;;;19.90;99.90;;;;;;5050524;28;20132;-70
2023/06/22 05:57:27;;;;;;;34.95;26.70;;;20.00;99.90;;;;;;5051292;28;20041;-69
2023/06/22 05:59:53;;;;;;;31.50;26.85;;;20.10;99.90;;;;;;5051327;28;20116;-69
2023/06/22 06:02:19;;;;;;;32.58;23.30;;;20.10;99.90;;;;;;5051373;28;20045;-69
2023/06/22 06:04:45;;;;;;;26.25;21.63;;;20.30;99.90;;;;;;5051209;28;20037;-70
2023/06/22 06:07:11;;;;;;;26.00;21.30;;;20.50;99.90;;;;;;5038455;28;20056;-70
2023/06/22 06:09:37;;;;;;;27.88;21.95;;;20.60;99.90;;;;;;5054290;28;20127;-70
2023/06/22 06:12:03;;;;;;;25.00;20.65;;;20.80;99.90;;;;;;5053569;28;20437;-71
2023/06/22 06:14:29;;;;;;;25.08;19.92;;;20.90;99.90;;;;;;5053685;28;20041;-70
2023/06/22 06:16:54;;;;;;;26.35;20.10;;;21.10;99.90;;;;;;5055075;28;20509;-70
2023/06/22 06:19:20;;;;;;;24.77;19.55;;;21.30;99.90;;;;;;5054516;28;20045;-69
2023/06/22 06:21:46;;;;;;;23.30;19.08;;;21.70;99.90;;;;;;5053644;28;20052;-71
2023/06/22 06:24:12;;;;;;;22.88;17.75;;;22.10;99.90;;;;;;5054500;28;20048;-68
2023/06/22 06:26:37;;;;;;;23.80;18.85;;;22.50;99.90;;;;;;5054790;28;20114;-71
2023/06/22 06:29:03;;;;;;;23.50;18.85;;;22.60;99.90;;;;;;5054551;28;20499;-69
2023/06/22 06:31:29;;;;;;;19.90;17.67;;;22.80;99.90;;;;;;5037035;28;20049;-69
2023/06/22 06:33:55;;;;;;;19.20;16.17;;;23.00;99.90;;;;;;5054157;28;20067;-70
2023/06/22 06:36:20;;;;;;;16.33;14.60;;;23.60;99.90;;;;;;5054249;28;20076;-69
2023/06/22 06:38:47;;;;;;;15.73;13.18;;;24.10;99.90;;;;;;5054654;28;20053;-71
2023/06/22 06:41:16;;;;;;;16.10;13.77;;;24.70;99.90;;;;;;5054229;28;20090;-70
2023/06/22 06:43:43;;;;;;;16.48;13.65;;;24.90;99.90;;;;;;5053367;28;20160;-70
2023/06/22 06:46:09;;;;;;;16.70;14.85;;;25.30;99.90;;;;;;5054498;28;20102;-70
2023/06/22 06:48:35;;;;;;;18.88;13.95;;;25.60;99.90;;;;;;5054465;28;20045;-69
2023/06/22 06:51:00;;;;;;;15.25;13.63;;;25.80;99.90;;;;;;5054449;28;20037;-69
2023/06/22 06:53:26;;;;;;;15.27;13.23;;;25.70;99.90;;;;;;5053952;28;20060;-69
2023/06/22 06:55:52;;;;;;;12.15;10.50;;;;;;;;;;5052842;28;20049;-70
2023/06/22 06:58:19;;;;;;;14.43;11.82;;;26.20;99.90;;;;;;5052886;28;20152;-69
2023/06/22 07:00:45;;;;;;;13.27;11.80;;;26.60;99.90;;;;;;5036470;28;20048;-70
2023/06/22 07:03:10;;;;;;;12.30;10.75;;;26.70;99.90;;;;;;5054209;28;20049;-70
2023/06/22 07:05:36;;;;;;;13.43;10.68;;;26.40;99.90;;;;;;5053709;28;20045;-70
2023/06/22 07:08:02;;;;;;;11.43;10.23;;;26.50;99.90;;;;;;5053949;28;20662;-70
2023/06/22 07:10:28;;;;;;;13.85;9.07;;;26.60;99.80;;;;;;5054139;28;20045;-70
2023/06/22 07:12:54;;;;;;;13.02;9.90;;;26.40;99.30;;;;;;5054181;28;20045;-71
2023/06/22 07:15:20;;;;;;;12.30;9.23;;;26.30;99.00;;;;;;5053616;28;20041;-72
2023/06/22 07:17:45;;;;;;;10.23;8.98;;;26.20;98.80;;;;;;5051765;28;20055;-72
2023/06/22 07:20:11;;;;;;;11.73;9.50;;;26.20;98.80;;;;;;5053534;28;20041;-70
2023/06/22 07:22:42;;;;;;;10.35;7.43;;;26.10;98.50;;;;;;5053879;28;20071;-70
2023/06/22 07:25:14;;;;;;;10.32;7.85;;;26.00;97.40;;;;;;5052123;28;20053;-69
2023/06/22 07:27:45;;;;;;;10.30;8.13;;;25.90;98.20;;;;;;5053254;28;20064;-72
2023/06/22 07:30:11;;;;;;;8.70;7.32;;;25.90;98.20;;;;;;5052226;28;20064;-70
2023/06/22 07:32:38;;;;;;;8.85;6.05;;;25.80;98.00;;;;;;5052185;28;20075;-72
2023/06/22 07:35:04;;;;;;;6.75;6.03;;;25.80;98.00;;;;;;5053204;28;20053;-70
2023/06/22 07:37:30;;;;;;;7.03;5.90;;;25.70;97.80;;;;;;5053209;28;20060;-70
2023/06/22 07:39:59;;;;;;;6.45;5.80;;;25.70;97.70;;;;;;5052133;28;20500;-70
2023/06/22 07:42:32;;;;;;;8.57;5.38;;;25.70;97.70;;;;;;5052944;28;20048;-71
2023/06/22 07:44:58;;;;;;;5.63;5.03;;;25.90;97.50;;;;;;5052710;28;20045;-70
2023/06/22 07:47:28;;;;;;;6.35;5.03;;;26.20;97.50;;;;;;5051663;28;20530;-72
2023/06/22 07:49:55;;;;;;;5.00;4.53;;;26.90;97.00;;;;;;5052689;28;20080;-70
2023/06/22 07:52:21;;;;;;;5.93;4.82;;;27.30;96.20;;;;;;5052436;28;20070;-71
2023/06/22 07:54:47;;;;;;;7.95;5.15;;;27.60;95.80;;;;;;5053071;28;20478;-71
2023/06/22 07:57:13;;;;;;;6.53;5.65;;;27.60;95.90;;;;;;5052758;28;20049;-72
2023/06/22 07:59:38;;;;;;;8.73;6.43;;;27.80;95.60;;;;;;5051636;28;20435;-70
2023/06/22 08:02:05;;;;;;;7.22;6.10;;;27.90;95.60;;;;;;5052761;28;20049;-72
2023/06/22 08:04:33;;;;;;;7.80;5.82;;;28.20;95.40;;;;;;5052632;28;20044;-70
2023/06/22 08:06:59;;;;;;;5.43;4.88;;;28.30;95.40;;;;;;5052556;28;20098;-70
2023/06/22 08:09:25;;;;;;;5.90;4.82;;;28.60;94.90;;;;;;5051783;28;20045;-71
2023/06/22 08:11:50;;;;;;;4.18;3.78;;;28.50;94.70;;;;;;5052453;28;20102;-71
2023/06/22 08:14:16;;;;;;;4.80;4.03;;;28.40;94.50;;;;;;5035498;28;20044;-70
2023/06/22 08:16:42;;;;;;;6.63;4.57;;;28.50;94.30;;;;;;5034867;28;20049;-71
2023/06/22 08:19:08;;;;;;;6.10;4.80;;;28.70;94.20;;;;;;5052771;28;20491;-71
2023/06/22 08:21:33;;;;;;;5.90;5.30;;;28.60;93.20;;;;;;5052336;28;20045;-70
2023/06/22 08:23:59;;;;;;;5.03;4.55;;;28.70;93.50;;;;;;5052219;28;20045;-71
2023/06/22 08:26:25;;;;;;;7.65;5.35;;;28.80;93.20;;;;;;5051958;28;20053;-71
2023/06/22 08:28:50;;;;;;;7.57;5.45;;;28.70;93.70;;;;;;5051197;28;20060;-70
2023/06/22 08:31:16;;;;;;;7.32;5.60;;;28.70;93.20;;;;;;5052101;28;20049;-71
2023/06/22 08:33:45;;;;;;;7.93;5.50;;;29.20;93.50;;;;;;5052605;28;20057;-70
2023/06/22 08:36:13;;;;;;;6.95;5.75;;;29.20;92.30;;;;;;5052132;28;20055;-71
2023/06/22 08:38:39;;;;;;;7.43;5.57;;;29.30;93.30;;;;;;5052415;28;20037;-70
2023/06/22 08:41:04;;;;;;;5.80;4.65;;;29.70;93.00;;;;;;5052576;28;20119;-70
2023/06/22 08:43:30;;;;;;;5.68;4.75;;;30.00;92.40;;;;;;5052149;28;20091;-69
2023/06/22 08:45:56;;;;;;;7.00;5.90;;;30.30;91.90;;;;;;5052536;28;20041;-70
2023/06/22 08:48:21;;;;;;;10.48;5.68;;;30.40;91.40;;;;;;5052433;28;20459;-69
2023/06/22 08:50:47;;;;;;;6.43;5.72;;;30.40;91.30;;;;;;5052273;28;20052;-72
2023/06/22 08:53:13;;;;;;;5.93;5.05;;;30.00;91.50;;;;;;5052166;28;20111;-70
2023/06/22 08:55:38;;;;;;;6.35;5.10;;;30.20;91.40;;;;;;5051033;28;20515;-70
2023/06/22 08:58:04;;;;;;;5.88;4.55;;;30.00;91.60;;;;;;5051928;28;20077;-69
2023/06/22 09:00:32;;;;;;;6.03;5.53;;;30.10;91.60;;;;;;5051547;28;20044;-69
2023/06/22 09:02:58;;;;;;;6.35;4.95;;;30.10;91.30;;;;;;5052141;28;20099;-70
2023/06/22 09:05:27;;;;;;;6.55;5.55;;;29.70;91.40;;;;;;5051759;28;20051;-70
2023/06/22 09:07:54;;;;;;;7.00;5.70;;;30.00;90.90;;;;;;5051846;28;20049;-71
2023/06/22 09:10:20;;;;;;;8.50;5.65;;;30.10;90.90;;;;;;5050618;28;20073;-72
2023/06/22 09:12:46;;;;;;;7.20;5.28;;;29.60;91.00;;;;;;5051842;28;20064;-71
2023/06/22 09:15:12;;;;;;;5.85;4.80;;;29.40;91.40;;;;;;5050530;28;20045;-70
2023/06/22 09:17:38;;;;;;;7.05;5.82;;;29.60;91.70;;;;;;5051834;28;20052;-70
2023/06/22 09:20:05;;;;;;;5.32;4.80;;;29.70;91.40;;;;;;5052059;28;20088;-70
2023/06/22 09:22:32;;;;;;;7.43;6.03;;;30.20;91.90;;;;;;5052536;28;20179;-71
2023/06/22 09:24:59;;;;;;;6.78;5.03;;;30.00;90.40;;;;;;5051844;28;20049;-71
2023/06/22 09:27:25;;;;;;;6.25;5.07;;;29.80;91.50;;;;;;5052196;28;20518;-71
2023/06/22 09:29:50;;;;;;;6.85;6.25;;;30.20;91.50;;;;;;5052024;28;20045;-71
2023/06/22 09:32:16;;;;;;;8.15;7.00;;;30.40;90.90;;;;;;5051358;28;20041;-69
2023/06/22 09:34:42;;;;;;;7.43;6.55;;;30.40;90.90;;;;;;5050374;28;20511;-70
2023/06/22 09:37:07;;;;;;;7.20;6.20;;;30.50;90.70;;;;;;5050872;28;20132;-69
2023/06/22 09:39:33;;;;;;;8.82;6.95;;;30.20;91.00;;;;;;5051432;28;20126;-69
2023/06/22 09:42:02;;;;;;;8.60;6.45;;;30.40;90.70;;;;;;5054783;28;20045;-70
2023/06/22 09:44:28;;;;;;;8.88;6.70;;;29.80;90.50;;;;;;5055241;28;20052;-71
2023/06/22 09:46:54;;;;;;;8.60;6.93;;;29.40;90.70;;;;;;5055289;28;20048;-69
2023/06/22 09:49:19;;;;;;;6.97;6.28;;;29.60;90.70;;;;;;5054128;28;20048;-69
2023/06/22 09:51:45;;;;;;;6.47;5.47;;;29.60;90.70;;;;;;5053944;28;20049;-70
2023/06/22 09:54:11;;;;;;;7.85;5.82;;;29.90;90.50;;;;;;5055003;28;20068;-72
2023/06/22 09:56:37;;;;;;;7.32;5.57;;;30.00;90.40;;;;;;5055218;28;20048;-70
2023/06/22 09:59:03;;;;;;;5.95;5.35;;;30.10;90.40;;;;;;5053985;28;20041;-71
2023/06/22 10:01:29;;;;;;;7.40;5.25;;;29.70;90.40;;;;;;5055008;28;20037;-70
2023/06/22 10:03:56;;;;;;;6.80;4.43;;;29.80;90.80;;;;;;5054725;28;20053;-71
2023/06/22 10:06:22;;;;;;;5.90;5.30;;;29.50;90.90;;;;;;5054761;28;20051;-70
2023/06/22 10:08:48;;;;;;;6.70;5.22;;;29.50;90.90;;;;;;5054754;28;20048;-70
2023/06/22 10:11:14;;;;;;;7.57;5.38;;;29.60;90.80;;;;;;5053848;28;20120;-72
2023/06/22 10:13:39;;;;;;;5.72;4.85;;;29.80;90.50;;;;;;5053792;28;20077;-69
2023/06/22 10:16:05;;;;;;;8.52;4.95;;;29.30;90.40;;;;;;5054684;28;20412;-71
2023/06/22 10:18:31;;;;;;;8.43;4.93;;;29.50;90.70;;;;;;5054597;28;20186;-69
2023/06/22 10:20:57;;;;;;;7.07;4.78;;;29.50;90.70;;;;;;5054393;28;20049;-71
2023/06/22 10:23:22;;;;;;;6.50;4.35;;;29.40;90.90;;;;;;5053272;28;20514;-69
2023/06/22 10:25:48;;;;;;;5.85;4.10;;;29.30;90.80;;;;;;5053152;28;20386;-70
2023/06/22 10:28:14;;;;;;;6.95;4.82;;;28.90;90.90;;;;;;5054416;28;20106;-71
2023/06/22 10:30:44;;;;;;;6.18;5.20;;;29.20;90.80;;;;;;5054628;28;20041;-71
2023/06/22 10:33:10;;;;;;;6.25;5.00;;;28.80;90.10;;;;;;5054102;28;20535;-70
2023/06/22 10:35:39;;;;;;;6.45;4.65;;;28.90;90.50;;;;;;5054249;28;20057;-71
2023/06/22 10:38:06;;;;;;;4.97;4.45;;;28.80;90.90;;;;;;5054173;28;20080;-70
2023/06/22 10:40:32;;;;;;;7.07;5.00;;;28.90;91.10;;;;;;5054330;28;20067;-70
2023/06/22 10:42:57;;;;;;;5.60;4.82;;;29.40;91.00;;;;;;5052965;28;20056;-69
2023/06/22 10:45:23;;;;;;;5.55;4.53;;;29.70;90.50;;;;;;5053945;28;20048;-71
2023/06/22 10:47:49;;;;;;;6.53;5.32;;;30.00;90.40;;;;;;5053978;28;20045;-71
2023/06/22 10:50:14;;;;;;;5.85;5.25;;;30.10;90.20;;;;;;5052921;28;20044;-70
2023/06/22 10:52:43;;;;;;;6.55;5.95;;;30.20;90.00;;;;;;5052968;28;20048;-72
2023/06/22 10:55:10;;;;;;;6.82;5.90;;;29.60;89.70;;;;;;5054206;28;20049;-70
2023/06/22 10:57:36;;;;;;;7.93;5.63;;;29.30;90.20;;;;;;5053242;28;20423;-71
2023/06/22 11:00:05;;;;;;;6.05;5.40;;;29.40;90.10;;;;;;5053865;28;20155;-70
2023/06/22 11:02:31;;;;;;;6.88;5.35;;;29.60;89.90;;;;;;5036356;28;20052;-72
2023/06/22 11:05:00;;;;;;;6.30;5.65;;;29.30;90.20;;;;;;5053079;28;20072;-72
2023/06/22 11:07:28;;;;;;;7.22;5.70;;;28.60;90.20;;;;;;5053081;28;20056;-73
2023/06/22 11:09:54;;;;;;;7.25;5.05;;;28.70;90.70;;;;;;5053714;28;20053;-70
2023/06/22 11:12:20;;;;;;;5.28;4.78;;;28.50;90.40;;;;;;5053844;28;20502;-69
2023/06/22 11:14:45;;;;;;;6.47;4.65;;;28.40;90.60;;;;;;5052666;28;20353;-71
2023/06/22 11:17:11;;;;;;;9.25;6.03;;;28.60;91.00;;;;;;5052586;28;20093;-70
2023/06/22 11:19:37;;;;;;;8.90;5.65;;;28.60;90.70;;;;;;5052525;28;20126;-70
2023/06/22 11:22:02;;;;;;;6.32;5.72;;;28.30;90.50;;;;;;5053921;28;20041;-72
2023/06/22 11:24:28;;;;;;;11.50;6.70;;;28.20;90.70;;;;;;5052052;28;20053;-71
2023/06/22 11:26:54;;;;;;;7.38;5.22;;;28.10;90.70;;;;;;5052025;28;20137;-70
2023/06/22 11:29:19;;;;;;;7.13;5.20;;;28.20;90.50;;;;;;5035495;28;20063;-70
2023/06/22 11:31:45;;;;;;;5.78;5.18;;;28.50;90.60;;;;;;5036198;28;20081;-70
2023/06/22 11:34:11;;;;;;;5.82;5.20;;;28.60;90.30;;;;;;5052035;28;20041;-70
2023/06/22 11:36:37;;;;;;;7.03;5.30;;;28.60;90.20;;;;;;5052458;28;20044;-71
2023/06/22 11:39:02;;;;;;;5.88;5.30;;;28.40;90.40;;;;;;5052435;28;20056;-68
2023/06/22 11:41:28;;;;;;;6.25;5.65;;;28.10;90.50;;;;;;5053360;28;20477;-68
2023/06/22 11:43:54;;;;;;;6.88;5.00;;;28.10;90.40;;;;;;5053306;28;20388;-69
2023/06/22 11:46:20;;;;;;;6.07;4.82;;;27.90;90.70;;;;;;5053288;28;20345;-69
2023/06/22 11:48:46;;;;;;;5.90;4.82;;;27.80;90.70;;;;;;5052421;28;20061;-71
2023/06/22 11:51:11;;;;;;;6.35;5.55;;;27.70;91.20;;;;;;5052823;28;20060;-70
2023/06/22 11:53:37;;;;;;;6.10;5.05;;;27.70;91.30;;;;;;5052973;28;20060;-70
2023/06/22 11:56:03;;;;;;;10.00;5.35;;;27.80;91.00;;;;;;5050999;28;20080;-71
2023/06/22 11:58:29;;;;;;;5.55;4.95;;;27.70;91.30;;;;;;5052886;28;20079;-69
2023/06/22 12:00:54;;;;;;;11.38;5.32;;;27.90;91.20;;;;;;5052609;28;20060;-71
2023/06/22 12:03:23;;;;;;;6.15;5.20;;;27.90;91.40;;;;;;5052528;28;20052;-72
2023/06/22 12:05:51;;;;;;;8.07;5.40;;;27.90;90.80;;;;;;5052617;28;20055;-70
2023/06/22 12:08:17;;;;;;;6.68;5.70;;;27.90;90.70;;;;;;5052640;28;20144;-70
2023/06/22 12:10:42;;;;;;;6.55;5.78;;;28.10;91.00;;;;;;5052402;28;20506;-71
2023/06/22 12:13:08;;;;;;;6.50;5.20;;;27.90;90.90;;;;;;5052882;28;20048;-71
2023/06/22 12:15:34;;;;;;;5.35;4.85;;;27.90;91.10;;;;;;5052684;28;20473;-71
2023/06/22 12:18:01;;;;;;;6.55;4.50;;;27.70;91.30;;;;;;5052206;28;20045;-70
2023/06/22 12:20:26;;;;;;;7.68;6.00;;;27.50;91.20;;;;;;5052515;28;20075;-70
2023/06/22 12:22:53;;;;;;;9.52;5.28;;;27.60;91.30;;;;;;5052463;28;20048;-69
2023/06/22 12:25:19;;;;;;;8.20;5.85;;;27.60;91.30;;;;;;5050867;28;20053;-70
2023/06/22 12:27:45;;;;;;;6.43;5.75;;;27.50;91.30;;;;;;5051269;28;20059;-70
2023/06/22 12:30:11;;;;;;;6.13;5.60;;;27.60;91.20;;;;;;5052669;28;20041;-70
2023/06/22 12:32:36;;;;;;;5.28;4.50;;;27.50;90.80;;;;;;5052396;28;20049;-69